Αναφορές Αεροδρομίων

 

KSJC - San Jose, California, USA
Distance from station: ΒΑ 14km
Ενημερώθηκε: 27/11/2021 22:53
Few Clouds
Few Clouds
 Ανεμος από Β
Ανεμος: Β 9 km/h
Θερμοκρασία: 20°C
Σημείο Δρόσου: 5°C
Υγρασία: 38%
Βαρόμετρο: 1020 hPa
Clouds: Few Clouds
Visibility: 16 km
Cloud details: Few Clouds 335 m
Few Clouds 3048 m
Few Clouds 4572 m
2021/11/27 20:53 KSJC 272053Z 35005KT 10SM FEW011 FEW100 FEW150 20/05 A3012 RMK AO2 SLP197 T02000050 58018
KNUQ - Moffett Nas/Mtn, California, USA
Distance from station: Β 14km
Ενημερώθηκε: 27/11/2021 22:55
Αίθριος
Αίθριος
 Ανεμος από Β
Ανεμος: Β 11 km/h
Θερμοκρασία: 18°C
Σημείο Δρόσου: 8°C
Υγρασία: 52%
Βαρόμετρο: 1020 hPa
Clouds: Αίθριος
Visibility: 14 km
2021/11/27 20:55 KNUQ 272055Z AUTO 35006KT 9SM CLR 18/08 A3012 RMK AO2
 
KPAO - Palo Alto, California, USA
Distance from station: ΒΒΔ 23km
Ενημερώθηκε: 27/11/2021 22:47
Αίθριος
Αίθριος
 Ανεμος από ΒΔ
Ανεμος: ΒΔ 13 km/h
Θερμοκρασία: 18°C
Σημείο Δρόσου: 7°C
Υγρασία: 49%
Βαρόμετρο: 1020.3 hPa
Clouds: Αίθριος
Visibility: 16 km
2021/11/27 20:47 KPAO 272047Z 31007KT 10SM SKC 18/07 A3013
KRHV - San Jose/Reid, California, USA
Distance from station: ΑΒΑ 19km
Ενημερώθηκε: 27/11/2021 22:47
Few Clouds
Few Clouds
 Ανεμος από calm
Ανεμος: Απνοια
Θερμοκρασία: 19°C
Σημείο Δρόσου: 5°C
Υγρασία: 40%
Βαρόμετρο: 1020 hPa
Clouds: Few Clouds
Visibility: 16 km
Cloud details: Few Clouds 3048 m
2021/11/27 20:47 KRHV 272047Z 00000KT 10SM FEW100 19/05 A3012
 
KOAK - Oakland, California, USA
Distance from station: ΒΒΔ 50km
Ενημερώθηκε: 27/11/2021 22:53
Μερικώς νεφελώδης
Μερικώς νεφελώδης
 Ανεμος από ΔΒΔ
Ανεμος: ΔΒΔ 19 km/h
Θερμοκρασία: 17°C
Σημείο Δρόσου: 10°C
Υγρασία: 64%
Βαρόμετρο: 1020.7 hPa
Clouds: Μερικώς νεφελώδης
Visibility: 16 km
Cloud details: Few Clouds 305 m
Μερικώς νεφελώδης 6096 m
2021/11/27 20:53 KOAK 272053Z 30010KT 10SM FEW010 SCT200 17/10 A3014 RMK AO2 SLP205 T01720100 58015
KSQL - San Carlos Airpo, California, USA
Distance from station: ΒΔ 34km
Ενημερώθηκε: 27/11/2021 22:47
Few Clouds
Few Clouds
 Ανεμος από ΒΒΔ
Ανεμος: ΒΒΔ 9 km/h
Θερμοκρασία: 19°C
Σημείο Δρόσου: 6°C
Υγρασία: 43%
Βαρόμετρο: 1020.7 hPa
Clouds: Few Clouds
Visibility: 16 km
Cloud details: Few Clouds 6096 m
2021/11/27 20:47 KSQL 272047Z 34005KT 10SM FEW200 19/06 A3014
 
KSFO - San Francisco, California, USA
Distance from station: ΒΔ 49km
Ενημερώθηκε: 27/11/2021 22:56
Μερικώς νεφελώδης
Μερικώς νεφελώδης
 Ανεμος από ΒΑ
Ανεμος: ΒΑ 6 km/h
Θερμοκρασία: 16°C
Σημείο Δρόσου: 10°C
Υγρασία: 68%
Βαρόμετρο: 1020 hPa
Clouds: Μερικώς νεφελώδης
Visibility: 16 km
Cloud details: Μερικώς νεφελώδης 6096 m
2021/11/27 20:56 KSFO 272056Z 04003KT 10SM SCT200 16/10 A3012 RMK AO2 SLP201 T01610100 58014 $
KE16 - San Martin, California, USA
Distance from station: ΑΝΑ 43km
Ενημερώθηκε: 27/11/2021 22:55
Αίθριος
Αίθριος
 Ανεμος από ΒΒΔ
Ανεμος: ΒΒΔ 17 km/h
Θερμοκρασία: 20°C
Σημείο Δρόσου: 3°C
Υγρασία: 33%
Βαρόμετρο: 1020 hPa
Clouds: Αίθριος
Visibility: 16 km
2021/11/27 20:55 KE16 272055Z AUTO 34009KT 10SM CLR 20/03 A3012 RMK AO2 PWINO PNO
 
KWVI - Watsonville, California, USA
Distance from station: ΝΝΑ 44km
Ενημερώθηκε: 27/11/2021 22:53
Αίθριος
Αίθριος
 Ανεμος από Ν
Ανεμος: Ν 6 km/h
Θερμοκρασία: 23°C
Σημείο Δρόσου: 6°C
Υγρασία: 33%
Βαρόμετρο: 1019 hPa
Clouds: Αίθριος
Visibility: 16 km
2021/11/27 20:53 KWVI 272053Z AUTO 18003KT 10SM CLR 23/06 A3009 RMK AO2 SLP190 T02280061 58021
KHAF - Half Moon Bay, California, USA
Distance from station: ΔΒΔ 50km
Ενημερώθηκε: 27/11/2021 22:55
Haze, Αίθριος
Haze, Αίθριος
 Ανεμος από varies
Ανεμος: varies 6 km/h
Θερμοκρασία: 21°C
Σημείο Δρόσου: 9°C
Υγρασία: 46%
Βαρόμετρο: 1019.6 hPa
Περίληψη: Haze
Clouds: Αίθριος
Visibility: 8 km
2021/11/27 20:55 KHAF 272055Z AUTO VRB03KT 5SM HZ CLR 21/09 A3011 RMK AO2
 
KHWD - Hayward, California, USA
Distance from station: Β 44km
Ενημερώθηκε: 27/11/2021 22:54
Αίθριος
Αίθριος
 Ανεμος από Δ
Ανεμος: Δ 15 km/h
Θερμοκρασία: 18°C
Σημείο Δρόσου: 11°C
Υγρασία: 64%
Βαρόμετρο: 1020 hPa
Clouds: Αίθριος
Visibility: 16 km
2021/11/27 20:54 KHWD 272054Z 28008KT 10SM CLR 18/11 A3012 RMK AO2 SLP209 T01780106 58017
KLVK - Livermore, California, USA
Distance from station: ΒΒΑ 51km
Ενημερώθηκε: 27/11/2021 22:53
Αίθριος
Αίθριος
 Ανεμος από Α
Ανεμος: Α 15 km/h
Θερμοκρασία: 19°C
Σημείο Δρόσου: 5°C
Υγρασία: 40%
Βαρόμετρο: 1020 hPa
Clouds: Αίθριος
Visibility: 16 km
2021/11/27 20:53 KLVK 272053Z 08008KT 10SM CLR 19/05 A3012 RMK AO2 SLP198 T01940050 58017